Time;durP1;ratioP1;P1;durP2;ratioP2;P2;SDS_P1;SDS_P2;PMS_P1;PMS_P2;Temp;Humidity;BMP_temperature;BMP_pressure;BME280_temperature;BME280_humidity;BME280_pressure;Samples;Min_cycle;Max_cycle;Signal;HPM_P1;HPM_P2
2023/06/10 00:00:44;;;;;;;11.38;6.47;;;;;;;;;;5071439;27;94587;-77
2023/06/10 00:03:10;;;;;;;12.50;6.20;;;;;;;;;;5065136;27;93534;-77
2023/06/10 00:05:38;;;;;;;12.10;6.50;;;;;;;;;;5062471;27;92443;-78
2023/06/10 00:08:08;;;;;;;12.35;6.35;;;;;;;;;;5074246;27;92796;-81
2023/06/10 00:10:35;;;;;;;11.68;6.50;;;;;;;;;;5065716;27;92060;-82
2023/06/10 00:13:03;;;;;;;9.55;6.18;;;;;;;;;;5062193;27;92672;-79
2023/06/10 00:15:30;;;;;;;12.13;6.70;;;;;;;;;;5061035;27;92171;-81
2023/06/10 00:17:57;;;;;;;10.70;6.43;;;;;;;;;;5060790;27;94836;-81
2023/06/10 00:20:24;;;;;;;11.10;6.18;;;;;;;;;;5061290;27;94304;-81
2023/06/10 00:22:51;;;;;;;10.77;5.75;;;;;;;;;;5081662;27;92193;-81
2023/06/10 00:25:18;;;;;;;10.63;6.15;;;;;;;;;;5082264;27;92504;-81
2023/06/10 00:27:44;;;;;;;9.93;5.63;;;;;;;;;;5062261;27;93132;-81
2023/06/10 00:30:11;;;;;;;11.70;5.95;;;;;;;;;;5062141;27;92160;-81
2023/06/10 00:32:38;;;;;;;11.75;5.97;;;;;;;;;;5063594;27;92674;-81
2023/06/10 00:35:05;;;;;;;11.50;5.80;;;;;;;;;;5081119;27;91375;-81
2023/06/10 00:37:35;;;;;;;11.50;5.97;;;;;;;;;;5065844;27;96509;-81
2023/06/10 00:40:03;;;;;;;10.80;5.90;;;;;;;;;;5067622;27;93946;-81
2023/06/10 00:42:31;;;;;;;10.80;5.45;;;;;;;;;;5058761;27;94509;-81
2023/06/10 00:44:57;;;;;;;9.48;5.88;;;;;;;;;;5060299;27;97221;-80
2023/06/10 00:47:25;;;;;;;11.30;5.40;;;;;;;;;;5059355;27;92589;-80
2023/06/10 00:49:51;;;;;;;10.70;5.30;;;;;;;;;;5060082;27;92356;-80
2023/06/10 00:52:19;;;;;;;11.07;5.20;;;;;;;;;;5050638;27;94544;-80
2023/06/10 00:54:46;;;;;;;10.88;5.20;;;;;;;;;;5065090;27;92716;-80
2023/06/10 00:57:14;;;;;;;10.18;5.10;;;;;;;;;;5060009;27;93592;-80
2023/06/10 00:59:42;;;;;;;8.77;5.10;;;;;;;;;;5060597;27;93714;-80
2023/06/10 01:02:09;;;;;;;10.43;5.53;;;;;;;;;;5062048;27;92528;-80
2023/06/10 01:04:36;;;;;;;9.98;4.95;;;;;;;;;;5062262;27;92874;-80
2023/06/10 01:07:12;;;;;;;10.25;4.82;;;;;;;;;;5060669;27;98129;-80
2023/06/10 01:09:44;;;;;;;9.00;4.82;;;;;;;;;;5063121;27;93543;-82
2023/06/10 01:12:19;;;;;;;11.07;5.15;;;;;;;;;;5063143;27;92637;-82
2023/06/10 01:14:46;;;;;;;10.27;4.82;;;;;;;;;;5062807;27;95036;-81
2023/06/10 01:17:16;;;;;;;9.52;5.20;;;;;;;;;;5069736;27;94575;-81
2023/06/10 01:19:44;;;;;;;9.52;5.00;;;;;;;;;;5077367;27;93678;-81
2023/06/10 01:22:15;;;;;;;9.55;4.80;;;;;;;;;;5060616;27;93238;-80
2023/06/10 01:24:43;;;;;;;9.27;5.15;;;;;;;;;;5043713;27;95018;-78
2023/06/10 01:27:12;;;;;;;10.18;4.90;;;;;;;;;;5058087;27;93830;-78
2023/06/10 01:29:48;;;;;;;11.57;5.32;;;;;;;;;;5060619;27;92517;-77
2023/06/10 01:32:16;;;;;;;10.35;5.10;;;;;;;;;;5058687;27;94239;-76
2023/06/10 01:34:43;;;;;;;10.45;5.18;;;;;;;;;;5073930;27;92660;-77
2023/06/10 01:37:10;;;;;;;;;;;;;;;;;;5074317;27;93747;-77
2023/06/10 01:39:39;;;;;;;10.60;4.60;;;;;;;;;;5060877;27;94950;-77
2023/06/10 01:42:08;;;;;;;10.93;4.90;;;;;;;;;;5062318;27;92072;-77
2023/06/10 01:44:35;;;;;;;10.18;4.80;;;;;;;;;;5062704;27;94905;-78
2023/06/10 01:47:02;;;;;;;9.35;4.70;;;;;;;;;;5063856;27;92796;-77
2023/06/10 01:49:28;;;;;;;9.77;4.63;;;;;;;;;;5063957;27;91420;-77
2023/06/10 01:51:55;;;;;;;11.75;4.90;;;;;;;;;;5067939;27;92474;-77
2023/06/10 01:54:21;;;;;;;10.65;5.05;;;;;;;;;;5070106;27;92843;-77
2023/06/10 01:56:48;;;;;;;8.93;4.32;;;;;;;;;;5060802;27;95011;-77
2023/06/10 01:59:15;;;;;;;8.38;4.45;;;;;;;;;;5070024;27;96859;-78
2023/06/10 02:01:42;;;;;;;10.65;4.85;;;;;;;;;;5083470;27;92418;-78
2023/06/10 02:04:09;;;;;;;8.85;4.55;;;;;;;;;;5083298;27;95169;-78
2023/06/10 02:06:37;;;;;;;7.78;4.40;;;;;;;;;;5081312;27;93714;-78
2023/06/10 02:09:04;;;;;;;9.32;5.25;;;;;;;;;;5063981;27;92018;-78
2023/06/10 02:11:30;;;;;;;10.35;4.90;;;;;;;;;;5061559;27;98025;-78
2023/06/10 02:13:57;;;;;;;9.52;4.47;;;;;;;;;;5062675;27;94541;-79
2023/06/10 02:16:23;;;;;;;9.07;4.28;;;;;;;;;;5065961;27;92141;-78
2023/06/10 02:18:50;;;;;;;9.25;4.43;;;;;;;;;;5078549;27;94893;-78
2023/06/10 02:21:17;;;;;;;9.52;4.93;;;;;;;;;;5085039;27;96552;-77
2023/06/10 02:23:43;;;;;;;11.55;4.53;;;;;;;;;;5065735;27;97392;-77
2023/06/10 02:26:10;;;;;;;9.90;4.25;;;;;;;;;;5079095;27;92764;-79
2023/06/10 02:28:36;;;;;;;9.07;4.90;;;;;;;;;;5072836;27;92371;-79
2023/06/10 02:31:03;;;;;;;11.75;5.10;;;;;;;;;;5071805;27;95177;-79
2023/06/10 02:33:29;;;;;;;8.60;4.70;;;;;;;;;;5076472;27;95462;-79
2023/06/10 02:35:56;;;;;;;9.07;4.70;;;;;;;;;;5057275;27;92116;-79
2023/06/10 02:38:24;;;;;;;9.60;4.45;;;;;;;;;;5082776;27;95253;-79
2023/06/10 02:40:50;;;;;;;9.75;4.65;;;;;;;;;;5079466;27;93100;-79
2023/06/10 02:43:17;;;;;;;11.80;4.90;;;;;;;;;;5066123;27;91992;-79
2023/06/10 02:45:43;;;;;;;9.52;4.40;;;;;;;;;;5043118;27;97400;-79
2023/06/10 02:48:10;;;;;;;9.50;4.53;;;;;;;;;;5080541;27;92576;-80
2023/06/10 02:50:39;;;;;;;12.20;5.00;;;;;;;;;;5082566;27;94807;-80
2023/06/10 02:53:28;;;;;;;8.80;4.50;;;;;;;;;;5060564;27;95141;-80
2023/06/10 02:56:02;;;;;;;9.73;4.60;;;;;;;;;;5077809;27;92543;-80
2023/06/10 02:58:29;;;;;;;9.82;4.63;;;;;;;;;;5082549;27;94892;-80
2023/06/10 03:00:56;;;;;;;10.55;4.55;;;;;;;;;;5082225;27;92442;-80
2023/06/10 03:03:23;;;;;;;10.02;4.40;;;;;;;;;;5076416;27;91867;-80
2023/06/10 03:06:02;;;;;;;9.27;4.40;;;;;;;;;;5071192;27;94929;-79
2023/06/10 03:08:30;;;;;;;11.70;4.72;;;;;;;;;;5081945;27;92180;-79
2023/06/10 03:10:59;;;;;;;10.35;4.78;;;;;;;;;;5080215;27;94711;-79
2023/06/10 03:13:26;;;;;;;10.13;4.75;;;;;;;;;;5081779;27;94841;-80
2023/06/10 03:15:53;;;;;;;9.82;4.82;;;;;;;;;;5075858;27;92041;-80
2023/06/10 03:18:22;;;;;;;11.32;4.70;;;;;;;;;;5072324;27;95103;-79
2023/06/10 03:20:51;;;;;;;9.10;4.43;;;;;;;;;;5061565;27;95073;-79
2023/06/10 03:23:18;;;;;;;10.02;4.60;;;;;;;;;;5049346;27;92245;-79
2023/06/10 03:25:45;;;;;;;10.75;4.60;;;;;;;;;;5084737;27;94622;-79
2023/06/10 03:28:15;;;;;;;9.90;4.93;;;;;;;;;;5082432;27;91397;-79
2023/06/10 03:30:42;;;;;;;10.98;4.28;;;;;;;;;;5071908;27;92219;-79
2023/06/10 03:33:09;;;;;;;9.85;4.88;;;;;;;;;;5063616;27;95179;-79
2023/06/10 03:35:37;;;;;;;11.00;4.85;;;;;;;;;;5081059;27;94413;-79
2023/06/10 03:38:04;;;;;;;10.25;4.70;;;;;;;;;;5065776;27;97109;-79
2023/06/10 03:40:31;;;;;;;11.77;4.88;;;;;;;;;;5081295;27;95069;-79
2023/06/10 03:42:59;;;;;;;10.25;4.80;;;;;;;;;;5080937;27;92487;-78
2023/06/10 03:45:28;;;;;;;10.07;4.43;;;;;;;;;;5075468;27;94691;-78
2023/06/10 03:47:56;;;;;;;12.05;5.00;;;;;;;;;;5062835;27;94948;-77
2023/06/10 03:50:28;;;;;;;10.80;4.38;;;;;;;;;;5064417;27;94971;-79
2023/06/10 03:52:54;;;;;;;13.55;4.63;;;;;;;;;;5069801;27;94544;-78
2023/06/10 03:55:24;;;;;;;12.38;4.40;;;;;;;;;;5080204;27;92621;-78
2023/06/10 03:57:51;;;;;;;9.40;4.40;;;;;;;;;;5081245;27;95250;-78
2023/06/10 04:00:18;;;;;;;10.80;4.43;;;;;;;;;;5068323;27;97119;-78
2023/06/10 04:02:51;;;;;;;9.75;4.30;;;;;;;;;;5061555;27;92497;-78
2023/06/10 04:05:28;;;;;;;10.40;4.80;;;;;;;;;;5060831;27;92538;-77
2023/06/10 04:07:56;;;;;;;9.57;4.60;;;;;;;;;;5060049;27;95726;-78
2023/06/10 04:10:23;;;;;;;9.45;4.47;;;;;;;;;;5063635;27;92527;-78
2023/06/10 04:12:49;;;;;;;10.10;4.47;;;;;;;;;;5059881;27;95629;-77
2023/06/10 04:15:17;;;;;;;9.75;4.57;;;;;;;;;;5059737;27;92720;-78
2023/06/10 04:17:43;;;;;;;10.30;4.68;;;;;;;;;;5070898;27;94945;-79
2023/06/10 04:20:11;;;;;;;9.20;4.20;;;;;;;;;;5060102;27;92847;-78
2023/06/10 04:22:42;;;;;;;9.88;4.72;;;;;;;;;;5064270;27;92148;-79
2023/06/10 04:25:09;;;;;;;10.43;4.95;;;;;;;;;;5078554;27;94786;-78
2023/06/10 04:27:37;;;;;;;10.05;4.75;;;;;;;;;;5078106;27;94128;-79
2023/06/10 04:30:04;;;;;;;11.35;4.35;;;;;;;;;;5060351;27;92584;-78
2023/06/10 04:32:33;;;;;;;11.27;4.53;;;;;;;;;;5077283;27;93445;-78
2023/06/10 04:35:00;;;;;;;10.00;4.60;;;;;;;;;;5062295;27;92044;-77
2023/06/10 04:37:28;;;;;;;9.73;4.20;;;;;;;;;;5072721;27;94741;-78
2023/06/10 04:39:55;;;;;;;10.85;4.60;;;;;;;;;;5061628;27;93745;-77
2023/06/10 04:42:22;;;;;;;11.02;4.30;;;;;;;;;;5060576;27;91709;-78
2023/06/10 04:44:49;;;;;;;11.38;4.53;;;;;;;;;;5059652;27;93326;-79
2023/06/10 04:47:17;;;;;;;9.32;4.30;;;;;;;;;;5051908;27;94512;-79
2023/06/10 04:49:44;;;;;;;11.30;4.32;;;;;;;;;;5077884;27;94609;-78
2023/06/10 04:52:11;;;;;;;12.50;4.43;;;;;;;;;;5074365;27;95221;-77
2023/06/10 04:54:40;;;;;;;9.82;4.30;;;;;;;;;;5079945;27;95483;-78
2023/06/10 04:57:07;;;;;;;9.20;4.35;;;;;;;;;;5064452;27;92516;-78
2023/06/10 04:59:37;;;;;;;8.50;4.10;;;;;;;;;;5064776;27;93883;-78
2023/06/10 05:02:04;;;;;;;10.13;4.65;;;;;;;;;;5065936;27;92186;-78
2023/06/10 05:04:31;;;;;;;9.45;4.32;;;;;;;;;;5059630;27;94525;-78
2023/06/10 05:06:57;;;;;;;10.75;4.40;;;;;;;;;;5059158;27;95174;-78
2023/06/10 05:09:25;;;;;;;8.90;4.40;;;;;;;;;;5059862;27;92016;-78
2023/06/10 05:11:53;;;;;;;9.15;4.45;;;;;;;;;;5060458;27;92462;-78
2023/06/10 05:14:20;;;;;;;9.82;4.55;;;;;;;;;;5059215;27;95061;-78
2023/06/10 05:16:47;;;;;;;10.13;4.60;;;;;;;;;;5069261;27;92055;-78
2023/06/10 05:19:16;;;;;;;11.10;4.63;;;;;;;;;;5073285;27;93088;-78
2023/06/10 05:21:44;;;;;;;9.48;4.60;;;;;;;;;;5064431;27;92154;-78
2023/06/10 05:24:10;;;;;;;9.77;4.55;;;;;;;;;;5063002;27;92727;-78
2023/06/10 05:26:38;;;;;;;9.23;4.25;;;;;;;;;;5062413;27;92874;-78
2023/06/10 05:29:05;;;;;;;10.40;4.20;;;;;;;;;;5063388;27;92741;-78
2023/06/10 05:31:31;;;;;;;12.73;4.85;;;;;;;;;;5064424;27;97150;-77
2023/06/10 05:33:58;;;;;;;8.63;4.32;;;;;;;;;;5068078;27;93051;-78
2023/06/10 05:36:27;;;;;;;9.15;4.30;;;;;;;;;;5072148;27;92794;-77
2023/06/10 05:38:54;;;;;;;12.63;5.00;;;;;;;;;;5060515;27;95935;-78
2023/06/10 05:41:21;;;;;;;9.63;4.18;;;;;;;;;;5062992;27;99596;-77
2023/06/10 05:43:48;;;;;;;13.20;4.57;;;;;;;;;;5066778;27;92497;-78
2023/06/10 05:46:15;;;;;;;11.35;4.88;;;;;;;;;;5078042;27;94399;-78
2023/06/10 05:48:41;;;;;;;11.27;4.40;;;;;;;;;;5069989;27;92127;-78
2023/06/10 05:51:08;;;;;;;10.50;4.85;;;;;;;;;;5082597;27;92650;-76
2023/06/10 05:53:34;;;;;;;10.27;4.43;;;;;;;;;;5077558;27;92796;-77
2023/06/10 05:56:01;;;;;;;10.20;4.75;;;;;;;;;;5084036;27;91585;-77
2023/06/10 05:58:27;;;;;;;11.23;5.28;;;;;;;;;;5087164;27;92102;-77
2023/06/10 06:00:54;;;;;;;9.02;4.65;;;;;;;;;;5066656;27;92001;-77
2023/06/10 06:03:20;;;;;;;10.60;5.10;;;;;;;;;;5061181;27;95801;-76
2023/06/10 06:05:47;;;;;;;10.77;5.18;;;;;;;;;;5063181;27;92648;-77
2023/06/10 06:08:17;;;;;;;12.02;5.38;;;;;;;;;;5067560;27;92231;-76
2023/06/10 06:10:44;;;;;;;10.90;4.50;;;;;;;;;;5083579;27;92295;-76
2023/06/10 06:13:11;;;;;;;12.68;5.20;;;;;;;;;;5067005;27;93257;-74
2023/06/10 06:15:37;;;;;;;12.30;5.00;;;;;;;;;;5074801;27;92070;-77
2023/06/10 06:18:04;;;;;;;12.80;4.50;;;;;;;;;;5072550;27;92816;-76
2023/06/10 06:20:31;;;;;;;11.48;5.38;;;;;;;;;;5065416;27;94535;-76
2023/06/10 06:22:57;;;;;;;11.35;4.70;;;;;;;;;;5063385;27;91999;-76
2023/06/10 06:25:24;;;;;;;13.95;5.18;;;;;;;;;;5060413;27;95399;-77
2023/06/10 06:27:51;;;;;;;16.13;5.13;;;;;;;;;;5060227;27;95127;-79
2023/06/10 06:30:17;;;;;;;10.75;5.18;;;;;;;;;;5079395;27;97017;-76
2023/06/10 06:32:44;;;;;;;14.52;5.10;;;;;;;;;;5074560;27;92960;-79
2023/06/10 06:35:11;;;;;;;12.55;5.07;;;;;;;;;;5061183;27;92248;-78
2023/06/10 06:37:37;;;;;;;10.65;5.03;;;;;;;;;;5056192;27;95057;-78
2023/06/10 06:40:30;;;;;;;10.48;5.10;;;;;;;;;;5077850;27;94810;-78
2023/06/10 06:42:56;;;;;;;11.77;5.38;;;;;;;;;;5067584;27;92136;-79
2023/06/10 06:45:52;;;;;;;12.85;5.30;;;;;;;;;;5063777;27;96356;-78
2023/06/10 06:48:18;;;;;;;13.45;5.55;;;;;;;;;;5074168;27;92344;-75
2023/06/10 06:50:46;;;;;;;15.07;5.47;;;;;;;;;;5081951;27;93991;-75
2023/06/10 06:53:13;;;;;;;13.05;5.30;;;;;;;;;;5077448;27;94951;-78
2023/06/10 06:55:39;;;;;;;9.85;5.03;;;;;;;;;;5079880;27;92007;-78
2023/06/10 06:58:06;;;;;;;11.57;5.32;;;;;;;;;;5064187;27;95224;-75
2023/06/10 07:00:33;;;;;;;11.80;5.07;;;;;;;;;;5069317;27;92805;-76
2023/06/10 07:02:59;;;;;;;11.00;4.60;;;;;;;;;;5062364;27;93432;-77
2023/06/10 07:05:27;;;;;;;12.20;5.00;;;;;;;;;;5064632;27;92395;-75
2023/06/10 07:07:55;;;;;;;10.70;5.03;;;;;;;;;;5059233;27;92590;-75
2023/06/10 07:10:22;;;;;;;8.27;4.10;;;;;;;;;;5062501;27;92112;-74
2023/06/10 07:12:50;;;;;;;10.48;4.57;;;;;;;;;;5063588;27;92640;-76
2023/06/10 07:15:16;;;;;;;10.65;4.65;;;;;;;;;;5081395;27;92378;-76
2023/06/10 07:17:43;;;;;;;10.38;4.60;;;;;;;;;;5070413;27;95004;-76
2023/06/10 07:20:10;;;;;;;8.98;4.60;;;;;;;;;;5062220;27;92836;-75
2023/06/10 07:22:38;;;;;;;9.18;4.38;;;;;;;;;;5069706;27;92108;-75
2023/06/10 07:25:05;;;;;;;10.57;4.53;;;;;;;;;;5064979;27;92719;-76
2023/06/10 07:27:32;;;;;;;9.52;4.47;;;;;;;;;;5059972;27;92366;-75
2023/06/10 07:30:00;;;;;;;8.95;4.40;;;;;;;;;;5062631;27;92378;-74
2023/06/10 07:32:27;;;;;;;9.85;4.65;;;;;;;;;;5062591;27;92985;-74
2023/06/10 07:34:54;;;;;;;8.50;4.15;;;;;;;;;;5077400;27;91570;-75
2023/06/10 07:37:20;;;;;;;9.27;4.20;;;;;;;;;;5080913;27;92197;-74
2023/06/10 07:39:47;;;;;;;9.00;4.40;;;;;;;;;;5066437;27;93537;-74
2023/06/10 07:42:13;;;;;;;8.88;3.70;;;;;;;;;;5060455;27;95001;-74
2023/06/10 07:44:40;;;;;;;8.70;3.80;;;;;;;;;;5062348;27;95232;-74
2023/06/10 07:47:07;;;;;;;9.00;3.83;;;;;;;;;;5064564;27;92790;-75
2023/06/10 07:49:33;;;;;;;9.55;4.10;;;;;;;;;;5073625;27;92999;-75
2023/06/10 07:52:00;;;;;;;9.98;4.43;;;;;;;;;;5050528;27;94577;-75
2023/06/10 07:54:26;;;;;;;8.82;4.10;;;;;;;;;;5062623;27;92151;-76
2023/06/10 07:56:55;;;;;;;9.73;4.03;;;;;;;;;;5076530;27;94710;-75
2023/06/10 07:59:22;;;;;;;8.52;4.25;;;;;;;;;;5062097;27;92374;-75
2023/06/10 08:01:49;;;;;;;8.45;4.35;;;;;;;;;;5061957;27;92603;-74
2023/06/10 08:04:15;;;;;;;9.30;3.90;;;;;;;;;;5062661;27;92536;-75
2023/06/10 08:06:42;;;;;;;8.55;4.20;;;;;;;;;;5078368;27;97260;-74
2023/06/10 08:09:08;;;;;;;8.07;3.85;;;;;;;;;;5070840;27;92287;-76
2023/06/10 08:11:35;;;;;;;8.88;3.88;;;;;;;;;;5061197;27;92416;-75
2023/06/10 08:14:02;;;;;;;8.68;3.90;;;;;;;;;;5061928;27;92039;-74
2023/06/10 08:16:28;;;;;;;7.85;3.85;;;;;;;;;;5061021;27;92524;-74
2023/06/10 08:18:55;;;;;;;8.60;3.95;;;;;;;;;;5064629;27;92793;-73
2023/06/10 08:21:21;;;;;;;9.00;4.10;;;;;;;;;;5061195;27;91947;-76
2023/06/10 08:23:48;;;;;;;8.43;4.00;;;;;;;;;;5062429;27;92499;-76
2023/06/10 08:26:14;;;;;;;8.13;3.90;;;;;;;;;;5057073;27;93981;-76
2023/06/10 08:28:41;;;;;;;8.68;4.15;;;;;;;;;;5063774;27;92490;-77
2023/06/10 08:31:08;;;;;;;7.35;3.85;;;;;;;;;;5081441;27;94570;-76
2023/06/10 08:33:34;;;;;;;9.80;3.83;;;;;;;;;;5071864;27;92016;-77
2023/06/10 08:36:01;;;;;;;8.25;3.58;;;;;;;;;;5073885;27;93193;-75
2023/06/10 08:38:27;;;;;;;9.15;3.75;;;;;;;;;;5061257;27;92772;-76
2023/06/10 08:40:56;;;;;;;9.02;3.85;;;;;;;;;;5061232;27;92245;-76
2023/06/10 08:43:29;;;;;;;7.15;3.58;;;;;;;;;;5058868;27;92384;-76
2023/06/10 08:45:57;;;;;;;8.98;3.72;;;;;;;;;;5059020;27;92742;-75
2023/06/10 08:48:24;;;;;;;7.30;3.53;;;;;;;;;;5062973;27;91470;-75
2023/06/10 08:50:51;;;;;;;8.30;4.00;;;;;;;;;;5059155;27;94181;-76
2023/06/10 08:53:18;;;;;;;8.23;3.90;;;;;;;;;;5080115;27;92705;-76
2023/06/10 08:55:48;;;;;;;8.02;3.65;;;;;;;;;;5059489;27;94686;-76
2023/06/10 08:58:14;;;;;;;9.70;3.88;;;;;;;;;;5064968;27;92725;-77
2023/06/10 09:00:41;;;;;;;9.55;4.00;;;;;;;;;;5075302;27;92383;-78
2023/06/10 09:03:08;;;;;;;8.57;4.22;;;;;;;;;;5073130;27;95002;-76
2023/06/10 09:05:38;;;;;;;10.00;3.92;;;;;;;;;;5080774;27;92747;-79
2023/06/10 09:08:09;;;;;;;9.32;3.70;;;;;;;;;;5080920;27;93243;-77
2023/06/10 09:10:35;;;;;;;7.75;3.83;;;;;;;;;;5080729;27;92158;-77
2023/06/10 09:13:02;;;;;;;7.68;3.67;;;;;;;;;;5081584;27;91966;-76
2023/06/10 09:15:28;;;;;;;7.85;4.10;;;;;;;;;;5072858;27;92764;-76
2023/06/10 09:17:55;;;;;;;10.70;3.80;;;;;;;;;;5063482;27;92797;-76
2023/06/10 09:20:22;;;;;;;10.55;4.00;;;;;;;;;;5076566;27;94604;-76
2023/06/10 09:22:49;;;;;;;;;;;;;;;;;;5061631;27;97901;-76
2023/06/10 09:25:16;;;;;;;8.45;3.55;;;;;;;;;;5079729;27;92403;-76
2023/06/10 09:27:49;;;;;;;7.25;3.50;;;;;;;;;;5048106;27;92463;-75
2023/06/10 09:30:32;;;;;;;9.23;3.83;;;;;;;;;;5060117;27;93504;-76
2023/06/10 09:33:00;;;;;;;8.10;3.90;;;;;;;;;;5059208;27;95135;-76
2023/06/10 09:35:28;;;;;;;9.50;3.88;;;;;;;;;;5078596;27;93336;-76
2023/06/10 09:37:58;;;;;;;7.57;3.75;;;;;;;;;;5060086;27;92060;-76
2023/06/10 09:40:25;;;;;;;9.30;3.65;;;;;;;;;;5059476;27;92436;-76
2023/06/10 09:42:54;;;;;;;;;;;;;;;;;;5075551;27;92626;-75
2023/06/10 09:45:21;;;;;;;9.25;3.83;;;;;;;;;;5068444;27;95436;-75
2023/06/10 09:47:51;;;;;;;9.95;3.80;;;;;;;;;;5063373;27;93505;-75
2023/06/10 09:50:18;;;;;;;7.85;3.85;;;;;;;;;;5074373;27;93452;-75
2023/06/10 09:52:45;;;;;;;8.60;3.60;;;;;;;;;;5074033;27;92380;-75
2023/06/10 09:55:12;;;;;;;8.18;4.10;;;;;;;;;;5062871;27;92805;-76
2023/06/10 09:57:41;;;;;;;7.60;3.85;;;;;;;;;;5071167;27;92354;-77
2023/06/10 10:00:08;;;;;;;8.35;4.13;;;;;;;;;;5067504;27;92436;-75
2023/06/10 10:02:46;;;;;;;6.60;3.60;;;;;;;;;;5070397;27;92700;-76
2023/06/10 10:05:17;;;;;;;7.95;3.80;;;;;;;;;;5066218;27;92819;-76
2023/06/10 10:07:44;;;;;;;7.90;3.63;;;;;;;;;;5071830;27;92683;-76
2023/06/10 10:10:11;;;;;;;7.07;3.75;;;;;;;;;;5076291;27;94817;-75
2023/06/10 10:12:39;;;;;;;8.55;3.83;;;;;;;;;;5074454;27;95361;-76
2023/06/10 10:15:07;;;;;;;9.68;4.05;;;;;;;;;;5064074;27;92239;-75
2023/06/10 10:17:37;;;;;;;7.82;3.95;;;;;;;;;;5072883;27;96803;-76
2023/06/10 10:20:06;;;;;;;8.10;3.83;;;;;;;;;;5072676;27;92713;-76
2023/06/10 10:22:37;;;;;;;7.47;3.78;;;;;;;;;;5067539;27;92720;-76
2023/06/10 10:25:08;;;;;;;7.60;3.65;;;;;;;;;;5066078;27;92922;-76
2023/06/10 10:27:47;;;;;;;8.02;3.85;;;;;;;;;;5069641;27;92144;-76
2023/06/10 10:30:14;;;;;;;7.15;3.47;;;;;;;;;;5068288;27;93289;-76
2023/06/10 10:32:55;;;;;;;7.32;3.40;;;;;;;;;;5070165;27;93230;-76
2023/06/10 10:35:24;;;;;;;8.15;3.60;;;;;;;;;;5078689;27;95265;-75
2023/06/10 10:37:52;;;;;;;10.18;4.35;;;;;;;;;;5067181;27;94772;-76
2023/06/10 10:40:20;;;;;;;11.82;3.90;;;;;;;;;;5068876;27;94164;-75
2023/06/10 10:42:47;;;;;;;9.10;4.30;;;;;;;;;;5080096;27;92008;-76
2023/06/10 10:45:14;;;;;;;9.18;3.83;;;;;;;;;;5074714;27;92723;-76
2023/06/10 10:47:41;;;;;;;;;;;;;;;;;;5068545;27;92868;-76
2023/06/10 10:50:18;;;;;;;7.78;4.05;;;;;;;;;;5074701;27;105052;-76
2023/06/10 10:52:53;;;;;;;7.15;3.67;;;;;;;;;;5072839;27;91955;-76
2023/06/10 10:55:20;;;;;;;8.00;3.60;;;;;;;;;;5060641;27;92414;-77
2023/06/10 10:58:16;;;;;;;6.68;3.38;;;;;;;;;;5081311;27;93209;-76
2023/06/10 11:00:44;;;;;;;7.03;3.88;;;;;;;;;;5074487;27;95164;-75
2023/06/10 11:03:16;;;;;;;8.25;3.85;;;;;;;;;;5073988;27;92336;-76
2023/06/10 11:05:47;;;;;;;8.98;4.03;;;;;;;;;;5077312;27;93626;-76
2023/06/10 11:08:15;;;;;;;7.32;3.70;;;;;;;;;;5072590;27;92846;-75
2023/06/10 11:10:50;;;;;;;7.47;3.80;;;;;;;;;;5062853;27;92188;-75
2023/06/10 11:13:19;;;;;;;8.13;3.65;;;;;;;;;;5077413;27;92777;-77
2023/06/10 11:15:49;;;;;;;7.32;3.28;;;;;;;;;;5080865;27;92383;-74
2023/06/10 11:18:24;;;;;;;6.78;3.50;;;;;;;;;;5067158;27;92828;-75
2023/06/10 11:20:52;;;;;;;7.57;3.53;;;;;;;;;;5076201;27;93568;-76
2023/06/10 11:23:25;;;;;;;7.00;3.50;;;;;;;;;;5077306;27;92317;-75
2023/06/10 11:25:51;;;;;;;7.47;3.72;;;;;;;;;;5061245;27;94923;-75
2023/06/10 11:28:21;;;;;;;6.68;3.20;;;;;;;;;;5063915;27;92711;-75
2023/06/10 11:30:56;;;;;;;7.15;3.40;;;;;;;;;;5062112;27;92351;-75
2023/06/10 11:33:23;;;;;;;6.55;3.20;;;;;;;;;;5064973;27;93721;-76
2023/06/10 11:35:50;;;;;;;7.03;3.42;;;;;;;;;;5080566;27;92434;-75
2023/06/10 11:38:18;;;;;;;6.28;3.38;;;;;;;;;;5081476;27;92360;-78
2023/06/10 11:40:51;;;;;;;7.68;3.40;;;;;;;;;;5082700;27;93141;-78
2023/06/10 11:43:18;;;;;;;6.43;3.35;;;;;;;;;;5078342;27;91333;-78
2023/06/10 11:45:45;;;;;;;5.93;3.30;;;;;;;;;;5061594;27;92046;-77
2023/06/10 11:48:12;;;;;;;7.65;3.50;;;;;;;;;;5072172;27;92545;-78
2023/06/10 11:50:41;;;;;;;;;;;;;;;;;;5070747;27;95832;-78
2023/06/10 11:53:08;;;;;;;6.57;3.35;;;;;;;;;;5068103;27;117453;-78
2023/06/10 11:55:45;;;;;;;6.53;3.25;;;;;;;;;;5077101;27;93534;-78
2023/06/10 11:58:19;;;;;;;6.80;3.30;;;;;;;;;;5068466;27;94717;-79
2023/06/10 12:00:53;;;;;;;6.32;3.20;;;;;;;;;;5053861;27;99894;-77
2023/06/10 12:03:22;;;;;;;7.40;3.60;;;;;;;;;;5073666;27;92269;-78
2023/06/10 12:05:58;;;;;;;6.32;3.28;;;;;;;;;;5072702;27;92396;-78
2023/06/10 12:08:25;;;;;;;8.18;3.47;;;;;;;;;;5067158;27;92072;-77
2023/06/10 12:10:51;;;;;;;;;;;;;;;;;;5077763;27;92125;-77
2023/06/10 12:13:18;;;;;;;6.78;3.45;;;;;;;;;;5068462;27;96238;-77
2023/06/10 12:15:45;;;;;;;7.78;3.20;;;;;;;;;;5072622;27;94925;-77
2023/06/10 12:18:32;;;;;;;8.00;3.78;;;;;;;;;;5071349;27;95129;-77
2023/06/10 12:20:59;;;;;;;6.90;3.33;;;;;;;;;;5065151;27;92581;-77
2023/06/10 12:23:25;;;;;;;8.32;3.80;;;;;;;;;;5063024;27;94163;-77
2023/06/10 12:25:53;;;;;;;7.30;3.85;;;;;;;;;;5076018;27;92493;-77
2023/06/10 12:28:23;;;;;;;6.60;3.67;;;;;;;;;;5068846;27;92677;-77
2023/06/10 12:30:49;;;;;;;6.65;3.45;;;;;;;;;;5067052;27;93469;-77
2023/06/10 12:33:19;;;;;;;7.15;3.25;;;;;;;;;;5077857;27;92471;-77
2023/06/10 12:35:50;;;;;;;6.93;3.58;;;;;;;;;;5075904;27;93470;-77
2023/06/10 12:38:24;;;;;;;7.00;3.28;;;;;;;;;;5070320;27;92475;-76
2023/06/10 12:40:51;;;;;;;6.80;3.47;;;;;;;;;;5067758;27;96444;-77
2023/06/10 12:43:21;;;;;;;6.22;3.33;;;;;;;;;;5081252;27;92134;-77
2023/06/10 12:45:47;;;;;;;6.68;3.35;;;;;;;;;;5062883;27;92210;-77
2023/06/10 12:48:21;;;;;;;9.23;3.70;;;;;;;;;;5073334;27;93065;-76
2023/06/10 12:50:52;;;;;;;6.68;3.70;;;;;;;;;;5073114;27;92735;-77
2023/06/10 12:53:19;;;;;;;7.07;3.65;;;;;;;;;;5063805;27;94091;-77
2023/06/10 12:55:46;;;;;;;7.55;3.60;;;;;;;;;;5081285;27;93388;-76
2023/06/10 12:58:13;;;;;;;6.45;3.42;;;;;;;;;;5082018;27;93333;-77
2023/06/10 13:00:40;;;;;;;7.05;3.60;;;;;;;;;;5079470;27;94042;-77
2023/06/10 13:03:07;;;;;;;7.63;3.88;;;;;;;;;;5074948;27;92039;-77
2023/06/10 13:05:37;;;;;;;8.45;3.83;;;;;;;;;;5057799;27;94524;-77
2023/06/10 13:08:03;;;;;;;7.47;3.75;;;;;;;;;;5060578;27;93534;-77
2023/06/10 13:10:30;;;;;;;5.93;3.33;;;;;;;;;;5064774;27;92227;-77
2023/06/10 13:12:57;;;;;;;7.00;3.78;;;;;;;;;;5073347;27;92679;-77
2023/06/10 13:15:26;;;;;;;7.90;3.78;;;;;;;;;;5072690;27;92960;-77
2023/06/10 13:17:52;;;;;;;9.02;3.83;;;;;;;;;;5073282;27;92531;-76
2023/06/10 13:20:20;;;;;;;6.55;3.63;;;;;;;;;;5069450;27;92684;-77
2023/06/10 13:22:47;;;;;;;6.53;3.63;;;;;;;;;;5069246;27;91374;-76
2023/06/10 13:25:14;;;;;;;7.40;3.85;;;;;;;;;;5068299;27;92575;-76
2023/06/10 13:27:42;;;;;;;7.03;3.63;;;;;;;;;;5064892;27;93715;-77
2023/06/10 13:30:09;;;;;;;7.43;3.63;;;;;;;;;;5071043;27;95136;-76
2023/06/10 13:32:36;;;;;;;7.85;3.50;;;;;;;;;;5066764;27;95826;-77
2023/06/10 13:35:03;;;;;;;7.13;3.25;;;;;;;;;;5068246;27;92581;-77
2023/06/10 13:37:30;;;;;;;8.02;4.07;;;;;;;;;;5069085;27;92147;-77
2023/06/10 13:39:57;;;;;;;7.25;3.63;;;;;;;;;;5078020;27;92467;-77
2023/06/10 13:42:26;;;;;;;6.28;3.58;;;;;;;;;;5075202;27;92053;-77
2023/06/10 13:44:52;;;;;;;6.47;3.47;;;;;;;;;;5072725;27;93424;-77
2023/06/10 13:47:20;;;;;;;7.72;3.70;;;;;;;;;;5074396;27;92470;-77
2023/06/10 13:49:47;;;;;;;6.65;3.60;;;;;;;;;;5078987;27;92155;-78
2023/06/10 13:52:14;;;;;;;6.45;3.63;;;;;;;;;;5082365;27;92391;-77
2023/06/10 13:54:40;;;;;;;6.90;3.78;;;;;;;;;;5077078;27;95233;-77
2023/06/10 13:57:07;;;;;;;9.95;4.15;;;;;;;;;;5074485;27;92386;-77
2023/06/10 13:59:34;;;;;;;6.55;3.60;;;;;;;;;;5079768;27;92138;-77
2023/06/10 14:02:01;;;;;;;;;;;;;;;;;;5076603;27;92468;-76
2023/06/10 14:04:27;;;;;;;6.90;3.67;;;;;;;;;;5081098;27;116357;-77
2023/06/10 14:06:55;;;;;;;6.75;3.70;;;;;;;;;;5062797;27;93205;-77
2023/06/10 14:09:22;;;;;;;6.97;3.53;;;;;;;;;;5079584;27;93538;-77
2023/06/10 14:11:48;;;;;;;6.45;3.85;;;;;;;;;;5064395;27;92487;-77
2023/06/10 14:14:15;;;;;;;7.05;3.70;;;;;;;;;;5077097;27;93284;-76
2023/06/10 14:16:41;;;;;;;7.85;3.90;;;;;;;;;;5071923;27;92446;-77
2023/06/10 14:19:09;;;;;;;7.47;3.83;;;;;;;;;;5069651;27;95123;-78
2023/06/10 14:21:36;;;;;;;8.75;3.83;;;;;;;;;;5077664;27;92782;-78
2023/06/10 14:24:03;;;;;;;6.93;3.42;;;;;;;;;;5066630;27;92386;-78
2023/06/10 14:26:29;;;;;;;8.50;4.10;;;;;;;;;;5073482;27;93517;-78
2023/06/10 14:28:56;;;;;;;8.10;3.72;;;;;;;;;;5080111;27;92536;-78
2023/06/10 14:31:22;;;;;;;7.78;3.90;;;;;;;;;;5070697;27;92563;-78
2023/06/10 14:33:49;;;;;;;7.75;3.75;;;;;;;;;;5073397;27;92990;-77
2023/06/10 14:36:16;;;;;;;7.60;3.90;;;;;;;;;;5077929;27;91963;-78
2023/06/10 14:38:42;;;;;;;;;;;;;;;;;;5084060;27;92472;-77
2023/06/10 14:41:09;;;;;;;7.63;3.70;;;;;;;;;;5069586;27;112787;-78
2023/06/10 14:43:35;;;;;;;7.00;3.72;;;;;;;;;;5061728;27;94717;-78
2023/06/10 14:46:02;;;;;;;6.40;3.60;;;;;;;;;;5059658;27;95384;-78